createdAt,value
2023-05-04T00:00:08.000Z,6.2553763440860415
2023-05-04T00:01:11.000Z,6.265102639296208
2023-05-04T00:02:13.000Z,6.2553763440860415
2023-05-04T00:03:15.000Z,6.245650048875875
2023-05-04T00:04:18.000Z,6.216471163245377
2023-05-04T00:05:20.000Z,6.235923753665709
2023-05-04T00:06:22.000Z,6.265102639296208
2023-05-04T00:07:24.000Z,6.28455522971654
2023-05-04T00:08:27.000Z,6.28455522971654
2023-05-04T00:09:29.000Z,6.342913000977537
2023-05-04T00:10:31.000Z,6.381818181818202
2023-05-04T00:11:34.000Z,6.410997067448701
2023-05-04T00:12:36.000Z,6.323460410557205
2023-05-04T00:13:38.000Z,6.333186705767371
2023-05-04T00:14:41.000Z,6.381818181818202
2023-05-04T00:15:43.000Z,6.372091886608036
2023-05-04T00:16:45.000Z,6.381818181818202
2023-05-04T00:17:47.000Z,6.313734115347039
2023-05-04T00:18:50.000Z,6.372091886608036
2023-05-04T00:19:52.000Z,6.420723362658867
2023-05-04T00:20:54.000Z,6.410997067448701
2023-05-04T00:21:57.000Z,6.313734115347039
2023-05-04T00:22:59.000Z,6.265102639296208
2023-05-04T00:24:01.000Z,6.3040078201368726
2023-05-04T00:25:04.000Z,6.294281524926706
2023-05-04T00:26:06.000Z,6.274828934506374
2023-05-04T00:27:08.000Z,6.323460410557205
2023-05-04T00:28:10.000Z,6.28455522971654
2023-05-04T00:29:13.000Z,6.342913000977537
2023-05-04T00:30:15.000Z,6.323460410557205
2023-05-04T00:31:17.000Z,6.342913000977537
2023-05-04T00:32:20.000Z,6.333186705767371
2023-05-04T00:33:22.000Z,6.3915444770283685
2023-05-04T00:34:24.000Z,6.381818181818202
2023-05-04T00:35:26.000Z,6.469354838709698
2023-05-04T00:36:29.000Z,6.381818181818202
2023-05-04T00:37:31.000Z,6.459628543499532
2023-05-04T00:38:34.000Z,6.508260019550363
2023-05-04T00:39:36.000Z,6.537438905180862
2023-05-04T00:40:38.000Z,6.517986314760529
2023-05-04T00:41:40.000Z,6.449902248289366
2023-05-04T00:42:43.000Z,6.5277126099706955
2023-05-04T00:43:45.000Z,6.537438905180862
2023-05-04T00:44:47.000Z,6.556891495601194
2023-05-04T00:45:49.000Z,6.517986314760529
2023-05-04T00:46:52.000Z,6.556891495601194
2023-05-04T00:47:54.000Z,6.586070381231693
2023-05-04T00:48:56.000Z,6.498533724340197
2023-05-04T00:49:59.000Z,6.469354838709698
2023-05-04T00:51:01.000Z,6.449902248289366
2023-05-04T00:52:03.000Z,6.459628543499532
2023-05-04T00:53:06.000Z,6.381818181818202
2023-05-04T00:54:08.000Z,6.449902248289366
2023-05-04T00:55:10.000Z,6.459628543499532
2023-05-04T00:56:13.000Z,6.4401759530791995
2023-05-04T00:57:15.000Z,6.4401759530791995
2023-05-04T00:58:17.000Z,6.449902248289366
2023-05-04T00:59:19.000Z,6.430449657869033
2023-05-04T01:00:22.000Z,6.36236559139787
2023-05-04T01:01:24.000Z,6.430449657869033
2023-05-04T01:02:26.000Z,6.430449657869033
2023-05-04T01:03:29.000Z,6.537438905180862
2023-05-04T01:04:31.000Z,6.488807429130031
2023-05-04T01:05:33.000Z,6.547165200391028
2023-05-04T01:06:35.000Z,6.556891495601194
2023-05-04T01:07:38.000Z,6.537438905180862
2023-05-04T01:08:40.000Z,6.586070381231693
2023-05-04T01:09:42.000Z,6.556891495601194
2023-05-04T01:10:45.000Z,6.556891495601194
2023-05-04T01:11:47.000Z,6.488807429130031
2023-05-04T01:12:49.000Z,6.556891495601194
2023-05-04T01:13:52.000Z,6.56661779081136
2023-05-04T01:14:54.000Z,6.479081133919864
2023-05-04T01:15:56.000Z,6.547165200391028
2023-05-04T01:16:59.000Z,6.449902248289366
2023-05-04T01:18:01.000Z,6.469354838709698
2023-05-04T01:19:03.000Z,6.381818181818202
2023-05-04T01:20:05.000Z,6.4401759530791995
2023-05-04T01:21:08.000Z,6.420723362658867
2023-05-04T01:22:10.000Z,6.323460410557205
2023-05-04T01:23:12.000Z,6.420723362658867
2023-05-04T01:24:15.000Z,6.401270772238535
2023-05-04T01:25:17.000Z,6.410997067448701
2023-05-04T01:26:19.000Z,6.3915444770283685
2023-05-04T01:27:22.000Z,6.401270772238535
2023-05-04T01:28:24.000Z,6.410997067448701
2023-05-04T01:29:26.000Z,6.342913000977537
2023-05-04T01:30:28.000Z,6.420723362658867
2023-05-04T01:31:31.000Z,6.5277126099706955
2023-05-04T01:32:33.000Z,6.547165200391028
2023-05-04T01:33:35.000Z,6.556891495601194
2023-05-04T01:34:37.000Z,6.5763440860215265
2023-05-04T01:35:40.000Z,6.5763440860215265
2023-05-04T01:36:42.000Z,6.517986314760529
2023-05-04T01:37:44.000Z,6.615249266862191
2023-05-04T01:38:47.000Z,6.634701857282524
2023-05-04T01:39:49.000Z,6.6638807429130225
2023-05-04T01:40:51.000Z,6.683333333333355
2023-05-04T01:41:53.000Z,6.673607038123189
2023-05-04T01:42:56.000Z,6.702785923753687
2023-05-04T01:43:58.000Z,6.64442815249269
2023-05-04T01:45:00.000Z,6.634701857282524
2023-05-04T01:46:03.000Z,6.64442815249269
2023-05-04T01:47:05.000Z,6.64442815249269
2023-05-04T01:48:07.000Z,6.634701857282524
2023-05-04T01:49:09.000Z,6.634701857282524
2023-05-04T01:50:12.000Z,6.624975562072358
2023-05-04T01:51:14.000Z,6.537438905180862
2023-05-04T01:52:16.000Z,6.64442815249269
2023-05-04T01:53:19.000Z,6.615249266862191
2023-05-04T01:54:21.000Z,6.556891495601194
2023-05-04T01:55:23.000Z,6.634701857282524
2023-05-04T01:56:25.000Z,6.64442815249269
2023-05-04T01:57:28.000Z,6.64442815249269
2023-05-04T01:58:30.000Z,6.64442815249269
2023-05-04T01:59:32.000Z,6.751417399804518
2023-05-04T02:00:35.000Z,6.790322580645183
2023-05-04T02:01:37.000Z,6.693059628543521
2023-05-04T02:02:39.000Z,6.780596285435017
2023-05-04T02:03:41.000Z,6.790322580645183
2023-05-04T02:04:44.000Z,6.780596285435017
2023-05-04T02:05:46.000Z,6.7125122189638535
2023-05-04T02:06:48.000Z,6.6638807429130225
2023-05-04T02:07:51.000Z,6.605522971652025
2023-05-04T02:08:53.000Z,6.498533724340197
2023-05-04T02:09:55.000Z,6.517986314760529
2023-05-04T02:10:57.000Z,6.498533724340197
2023-05-04T02:12:00.000Z,6.469354838709698
2023-05-04T02:13:02.000Z,6.352639296187704
2023-05-04T02:14:04.000Z,6.372091886608036
2023-05-04T02:15:07.000Z,6.333186705767371
2023-05-04T02:16:09.000Z,6.274828934506374
2023-05-04T02:17:11.000Z,6.342913000977537
2023-05-04T02:18:14.000Z,6.333186705767371
2023-05-04T02:19:16.000Z,6.313734115347039
2023-05-04T02:20:18.000Z,6.216471163245377
2023-05-04T02:21:20.000Z,6.313734115347039
2023-05-04T02:22:23.000Z,6.36236559139787
2023-05-04T02:23:25.000Z,6.352639296187704
2023-05-04T02:24:27.000Z,6.36236559139787
2023-05-04T02:25:30.000Z,6.352639296187704
2023-05-04T02:26:32.000Z,6.479081133919864
2023-05-04T02:27:34.000Z,6.420723362658867
2023-05-04T02:28:36.000Z,6.498533724340197
2023-05-04T02:29:39.000Z,6.547165200391028
2023-05-04T02:30:41.000Z,6.537438905180862
2023-05-04T02:31:43.000Z,6.556891495601194
2023-05-04T02:32:46.000Z,6.595796676441859
2023-05-04T02:33:48.000Z,6.595796676441859
2023-05-04T02:34:50.000Z,6.5277126099706955
2023-05-04T02:35:53.000Z,6.64442815249269
2023-05-04T02:36:55.000Z,6.673607038123189
2023-05-04T02:37:57.000Z,6.547165200391028
2023-05-04T02:38:59.000Z,6.6638807429130225
2023-05-04T02:40:02.000Z,6.683333333333355
2023-05-04T02:41:04.000Z,6.488807429130031
2023-05-04T02:42:06.000Z,6.5763440860215265
2023-05-04T02:43:09.000Z,6.5763440860215265
2023-05-04T02:44:11.000Z,6.498533724340197
2023-05-04T02:45:13.000Z,6.605522971652025
2023-05-04T02:46:16.000Z,6.615249266862191
2023-05-04T02:47:18.000Z,6.605522971652025
2023-05-04T02:48:20.000Z,6.508260019550363
2023-05-04T02:49:23.000Z,6.605522971652025
2023-05-04T02:50:25.000Z,6.624975562072358
2023-05-04T02:51:27.000Z,6.537438905180862
2023-05-04T02:52:29.000Z,6.556891495601194
2023-05-04T02:53:32.000Z,6.586070381231693
2023-05-04T02:54:34.000Z,6.683333333333355
2023-05-04T02:55:36.000Z,6.702785923753687
2023-05-04T02:56:39.000Z,6.731964809384186
2023-05-04T02:57:41.000Z,6.741691104594352
2023-05-04T02:58:43.000Z,6.683333333333355
2023-05-04T02:59:46.000Z,6.751417399804518
2023-05-04T03:00:48.000Z,6.731964809384186
2023-05-04T03:01:50.000Z,6.624975562072358
2023-05-04T03:02:52.000Z,6.702785923753687
2023-05-04T03:03:55.000Z,6.702785923753687
2023-05-04T03:04:57.000Z,6.7125122189638535
2023-05-04T03:05:59.000Z,6.615249266862191
2023-05-04T03:07:02.000Z,6.6638807429130225
2023-05-04T03:08:04.000Z,6.537438905180862
2023-05-04T03:09:06.000Z,6.459628543499532
2023-05-04T03:10:09.000Z,6.410997067448701
2023-05-04T03:11:11.000Z,6.420723362658867
2023-05-04T03:12:13.000Z,6.420723362658867
2023-05-04T03:13:16.000Z,6.420723362658867
2023-05-04T03:14:18.000Z,6.410997067448701
2023-05-04T03:15:20.000Z,6.36236559139787
2023-05-04T03:16:22.000Z,6.333186705767371
2023-05-04T03:17:25.000Z,6.265102639296208
2023-05-04T03:18:27.000Z,6.3040078201368726
2023-05-04T03:19:29.000Z,6.3040078201368726
2023-05-04T03:20:32.000Z,6.28455522971654
2023-05-04T03:21:34.000Z,6.274828934506374
2023-05-04T03:22:36.000Z,6.381818181818202
2023-05-04T03:23:38.000Z,6.372091886608036
2023-05-04T03:24:41.000Z,6.313734115347039
2023-05-04T03:25:43.000Z,6.3915444770283685
2023-05-04T03:26:45.000Z,6.36236559139787
2023-05-04T03:27:48.000Z,6.352639296187704
2023-05-04T03:28:50.000Z,6.265102639296208
2023-05-04T03:29:52.000Z,6.352639296187704
2023-05-04T03:30:54.000Z,6.342913000977537
2023-05-04T03:31:57.000Z,6.342913000977537
2023-05-04T03:32:59.000Z,6.274828934506374
2023-05-04T03:34:01.000Z,6.342913000977537
2023-05-04T03:35:04.000Z,6.352639296187704
2023-05-04T03:36:06.000Z,6.265102639296208
2023-05-04T03:37:08.000Z,6.2553763440860415
2023-05-04T03:38:11.000Z,6.226197458455543
2023-05-04T03:39:13.000Z,6.2553763440860415
2023-05-04T03:40:15.000Z,6.216471163245377
2023-05-04T03:41:17.000Z,6.274828934506374
2023-05-04T03:42:20.000Z,6.274828934506374
2023-05-04T03:43:22.000Z,6.28455522971654
2023-05-04T03:44:24.000Z,6.274828934506374
2023-05-04T03:45:27.000Z,6.323460410557205
2023-05-04T03:46:29.000Z,6.342913000977537
2023-05-04T03:47:31.000Z,6.28455522971654
2023-05-04T03:48:34.000Z,6.36236559139787
2023-05-04T03:49:36.000Z,6.352639296187704
2023-05-04T03:50:38.000Z,6.4401759530791995
2023-05-04T03:51:40.000Z,6.449902248289366
2023-05-04T03:52:43.000Z,6.469354838709698
2023-05-04T03:53:45.000Z,6.479081133919864
2023-05-04T03:54:47.000Z,6.420723362658867
2023-05-04T03:55:49.000Z,6.517986314760529
2023-05-04T03:56:52.000Z,6.556891495601194
2023-05-04T03:57:54.000Z,6.586070381231693
2023-05-04T03:58:57.000Z,6.595796676441859
2023-05-04T03:59:59.000Z,6.5277126099706955
2023-05-04T04:01:01.000Z,6.615249266862191
2023-05-04T04:02:03.000Z,6.64442815249269
2023-05-04T04:03:06.000Z,6.6638807429130225
2023-05-04T04:04:08.000Z,6.508260019550363
2023-05-04T04:05:10.000Z,6.547165200391028
2023-05-04T04:06:13.000Z,6.615249266862191
2023-05-04T04:07:15.000Z,6.595796676441859
2023-05-04T04:08:17.000Z,6.615249266862191
2023-05-04T04:09:19.000Z,6.64442815249269
2023-05-04T04:10:22.000Z,6.6638807429130225
2023-05-04T04:11:24.000Z,6.556891495601194
2023-05-04T04:12:26.000Z,6.6638807429130225
2023-05-04T04:13:29.000Z,6.654154447702856
2023-05-04T04:14:31.000Z,6.64442815249269
2023-05-04T04:15:33.000Z,6.595796676441859
2023-05-04T04:16:35.000Z,6.654154447702856
2023-05-04T04:17:38.000Z,6.64442815249269
2023-05-04T04:18:40.000Z,6.64442815249269
2023-05-04T04:19:42.000Z,6.751417399804518
2023-05-04T04:20:45.000Z,6.761143695014685
2023-05-04T04:21:47.000Z,6.770869990224851
2023-05-04T04:22:49.000Z,6.761143695014685
2023-05-04T04:23:52.000Z,6.731964809384186
2023-05-04T04:24:54.000Z,6.770869990224851
2023-05-04T04:25:56.000Z,6.8000488758553495
2023-05-04T04:26:58.000Z,6.809775171065516
2023-05-04T04:28:01.000Z,6.819501466275682
2023-05-04T04:29:03.000Z,6.829227761485848
2023-05-04T04:30:05.000Z,6.809775171065516
2023-05-04T04:31:07.000Z,6.731964809384186
2023-05-04T04:32:10.000Z,6.683333333333355
2023-05-04T04:33:12.000Z,6.654154447702856
2023-05-04T04:34:14.000Z,6.64442815249269
2023-05-04T04:35:17.000Z,6.56661779081136
2023-05-04T04:36:19.000Z,6.624975562072358
2023-05-04T04:37:21.000Z,6.615249266862191
2023-05-04T04:38:24.000Z,6.595796676441859
2023-05-04T04:39:26.000Z,6.517986314760529
2023-05-04T04:40:28.000Z,6.56661779081136
2023-05-04T04:41:30.000Z,6.547165200391028
2023-05-04T04:42:33.000Z,6.537438905180862
2023-05-04T04:43:35.000Z,6.508260019550363
2023-05-04T04:44:37.000Z,6.401270772238535
2023-05-04T04:45:40.000Z,6.537438905180862
2023-05-04T04:46:42.000Z,6.537438905180862
2023-05-04T04:47:44.000Z,6.5277126099706955
2023-05-04T04:48:47.000Z,6.517986314760529
2023-05-04T04:49:49.000Z,6.449902248289366
2023-05-04T04:50:51.000Z,6.498533724340197
2023-05-04T04:51:53.000Z,6.479081133919864
2023-05-04T04:52:56.000Z,6.488807429130031
2023-05-04T04:53:58.000Z,6.410997067448701
2023-05-04T04:55:00.000Z,6.479081133919864
2023-05-04T04:56:02.000Z,6.4401759530791995
2023-05-04T04:57:05.000Z,6.410997067448701
2023-05-04T04:58:07.000Z,6.372091886608036
2023-05-04T04:59:09.000Z,6.294281524926706
2023-05-04T05:00:12.000Z,6.28455522971654
2023-05-04T05:01:14.000Z,6.274828934506374
2023-05-04T05:02:16.000Z,6.226197458455543
2023-05-04T05:03:18.000Z,6.187292277614878
2023-05-04T05:04:21.000Z,6.245650048875875
2023-05-04T05:05:23.000Z,6.20674486803521
2023-05-04T05:06:25.000Z,6.20674486803521
2023-05-04T05:07:28.000Z,6.216471163245377
2023-05-04T05:08:30.000Z,6.177565982404712
2023-05-04T05:09:32.000Z,6.216471163245377
2023-05-04T05:10:34.000Z,6.20674486803521
2023-05-04T05:11:37.000Z,6.187292277614878
2023-05-04T05:12:39.000Z,6.187292277614878
2023-05-04T05:13:41.000Z,6.197018572825044
2023-05-04T05:14:44.000Z,6.2553763440860415
2023-05-04T05:15:46.000Z,6.245650048875875
2023-05-04T05:16:48.000Z,6.235923753665709
2023-05-04T05:17:50.000Z,6.235923753665709
2023-05-04T05:18:53.000Z,6.20674486803521
2023-05-04T05:19:55.000Z,6.20674486803521
2023-05-04T05:20:57.000Z,6.216471163245377
2023-05-04T05:22:00.000Z,6.197018572825044
2023-05-04T05:23:02.000Z,6.197018572825044
2023-05-04T05:24:04.000Z,6.148387096774213
2023-05-04T05:25:06.000Z,6.226197458455543
2023-05-04T05:26:09.000Z,6.197018572825044
2023-05-04T05:27:11.000Z,6.197018572825044
2023-05-04T05:28:13.000Z,6.128934506353881
2023-05-04T05:29:16.000Z,6.128934506353881
2023-05-04T05:30:18.000Z,6.090029325513216
2023-05-04T05:31:20.000Z,6.1192082111437145
2023-05-04T05:32:22.000Z,6.109481915933548
2023-05-04T05:33:25.000Z,6.148387096774213
2023-05-04T05:34:27.000Z,6.158113391984379
2023-05-04T05:35:29.000Z,6.138660801564047
2023-05-04T05:36:32.000Z,6.128934506353881
2023-05-04T05:37:34.000Z,6.167839687194546
2023-05-04T05:38:36.000Z,6.158113391984379
2023-05-04T05:39:38.000Z,6.158113391984379
2023-05-04T05:40:41.000Z,6.1192082111437145
2023-05-04T05:41:43.000Z,6.167839687194546
2023-05-04T05:42:45.000Z,6.197018572825044
2023-05-04T05:43:48.000Z,6.177565982404712
2023-05-04T05:44:50.000Z,6.177565982404712
2023-05-04T05:45:52.000Z,6.1192082111437145
2023-05-04T05:46:54.000Z,6.187292277614878
2023-05-04T05:47:57.000Z,6.187292277614878
2023-05-04T05:48:59.000Z,6.187292277614878
2023-05-04T05:50:01.000Z,6.20674486803521
2023-05-04T05:51:04.000Z,6.167839687194546
2023-05-04T05:52:06.000Z,6.216471163245377
2023-05-04T05:53:08.000Z,6.235923753665709
2023-05-04T05:54:11.000Z,6.245650048875875
2023-05-04T05:55:13.000Z,6.109481915933548
2023-05-04T05:56:15.000Z,6.148387096774213
2023-05-04T05:57:17.000Z,6.138660801564047
2023-05-04T05:58:20.000Z,6.148387096774213
2023-05-04T05:59:22.000Z,6.177565982404712
2023-05-04T06:00:24.000Z,6.109481915933548
2023-05-04T06:01:27.000Z,6.158113391984379
2023-05-04T06:02:29.000Z,6.138660801564047
2023-05-04T06:03:31.000Z,6.148387096774213
2023-05-04T06:04:34.000Z,6.148387096774213
2023-05-04T06:05:36.000Z,6.099755620723382
2023-05-04T06:06:38.000Z,6.1192082111437145
2023-05-04T06:07:40.000Z,6.109481915933548
2023-05-04T06:08:43.000Z,6.128934506353881
2023-05-04T06:09:45.000Z,6.128934506353881
2023-05-04T06:10:47.000Z,6.158113391984379
2023-05-04T06:11:50.000Z,6.158113391984379
2023-05-04T06:12:52.000Z,6.187292277614878
2023-05-04T06:13:54.000Z,6.167839687194546
2023-05-04T06:14:56.000Z,6.1192082111437145
2023-05-04T06:15:59.000Z,6.167839687194546
2023-05-04T06:17:01.000Z,6.187292277614878
2023-05-04T06:18:04.000Z,6.226197458455543
2023-05-04T06:19:06.000Z,6.216471163245377
2023-05-04T06:20:08.000Z,6.158113391984379
2023-05-04T06:21:11.000Z,6.167839687194546
2023-05-04T06:22:13.000Z,6.177565982404712
2023-05-04T06:23:15.000Z,6.1192082111437145
2023-05-04T06:24:17.000Z,6.090029325513216
2023-05-04T06:25:20.000Z,6.041397849462385
2023-05-04T06:26:22.000Z,6.08030303030305
2023-05-04T06:27:24.000Z,6.090029325513216
2023-05-04T06:28:27.000Z,6.060850439882717
2023-05-04T06:29:29.000Z,6.090029325513216
2023-05-04T06:30:31.000Z,6.021945259042052
2023-05-04T06:31:34.000Z,6.070576735092883
2023-05-04T06:32:36.000Z,6.070576735092883
2023-05-04T06:33:38.000Z,6.060850439882717
2023-05-04T06:34:40.000Z,6.021945259042052
2023-05-04T06:35:43.000Z,6.060850439882717
2023-05-04T06:36:45.000Z,6.1192082111437145
2023-05-04T06:37:47.000Z,6.109481915933548
2023-05-04T06:38:50.000Z,6.109481915933548
2023-05-04T06:39:52.000Z,6.1192082111437145
2023-05-04T06:40:54.000Z,6.090029325513216
2023-05-04T06:41:56.000Z,6.138660801564047
2023-05-04T06:42:59.000Z,6.177565982404712
2023-05-04T06:44:01.000Z,6.177565982404712
2023-05-04T06:45:03.000Z,6.138660801564047
2023-05-04T06:46:06.000Z,6.109481915933548
2023-05-04T06:47:08.000Z,6.158113391984379
2023-05-04T06:48:10.000Z,6.158113391984379
2023-05-04T06:49:12.000Z,6.167839687194546
2023-05-04T06:50:15.000Z,6.20674486803521
2023-05-04T06:51:17.000Z,6.070576735092883
2023-05-04T06:52:19.000Z,6.109481915933548
2023-05-04T06:53:22.000Z,6.099755620723382
2023-05-04T06:54:24.000Z,6.099755620723382
2023-05-04T06:55:26.000Z,6.099755620723382
2023-05-04T06:56:29.000Z,6.109481915933548
2023-05-04T06:57:31.000Z,6.090029325513216
2023-05-04T06:58:33.000Z,6.090029325513216
2023-05-04T06:59:36.000Z,6.090029325513216
2023-05-04T07:00:38.000Z,6.090029325513216
2023-05-04T07:01:40.000Z,6.070576735092883
2023-05-04T07:02:42.000Z,6.090029325513216
2023-05-04T07:03:45.000Z,6.109481915933548
2023-05-04T07:04:47.000Z,6.20674486803521
2023-05-04T07:05:49.000Z,6.187292277614878
2023-05-04T07:06:52.000Z,6.109481915933548
2023-05-04T07:07:54.000Z,6.138660801564047
2023-05-04T07:08:56.000Z,6.158113391984379
2023-05-04T07:09:58.000Z,6.177565982404712
2023-05-04T07:11:01.000Z,6.197018572825044
2023-05-04T07:12:03.000Z,6.197018572825044
2023-05-04T07:13:05.000Z,6.20674486803521
2023-05-04T07:14:08.000Z,6.20674486803521
2023-05-04T07:15:10.000Z,6.138660801564047
2023-05-04T07:16:12.000Z,6.20674486803521
2023-05-04T07:17:15.000Z,6.226197458455543
2023-05-04T07:18:17.000Z,6.226197458455543
2023-05-04T07:19:19.000Z,6.167839687194546
2023-05-04T07:20:21.000Z,6.148387096774213
2023-05-04T07:21:24.000Z,6.109481915933548
2023-05-04T07:22:26.000Z,6.187292277614878
2023-05-04T07:23:28.000Z,6.187292277614878
2023-05-04T07:24:31.000Z,6.167839687194546
2023-05-04T07:25:33.000Z,6.167839687194546
2023-05-04T07:26:35.000Z,6.148387096774213
2023-05-04T07:27:37.000Z,6.099755620723382
2023-05-04T07:28:40.000Z,6.138660801564047
2023-05-04T07:29:42.000Z,6.138660801564047
2023-05-04T07:30:44.000Z,6.167839687194546
2023-05-04T07:31:47.000Z,6.148387096774213
2023-05-04T07:32:49.000Z,6.20674486803521
2023-05-04T07:33:51.000Z,6.2553763440860415
2023-05-04T07:34:54.000Z,6.187292277614878
2023-05-04T07:35:56.000Z,6.216471163245377
2023-05-04T07:36:58.000Z,6.216471163245377
2023-05-04T07:38:00.000Z,6.216471163245377
2023-05-04T07:39:03.000Z,6.226197458455543
2023-05-04T07:40:05.000Z,6.20674486803521
2023-05-04T07:41:07.000Z,6.197018572825044
2023-05-04T07:42:09.000Z,6.226197458455543
2023-05-04T07:43:12.000Z,6.2553763440860415
2023-05-04T07:44:14.000Z,6.2553763440860415
2023-05-04T07:45:16.000Z,6.245650048875875
2023-05-04T07:46:19.000Z,6.167839687194546
2023-05-04T07:47:21.000Z,6.158113391984379
2023-05-04T07:48:23.000Z,6.177565982404712
2023-05-04T07:49:26.000Z,6.177565982404712
2023-05-04T07:50:28.000Z,6.167839687194546
2023-05-04T07:51:30.000Z,6.138660801564047
2023-05-04T07:52:32.000Z,6.1192082111437145
2023-05-04T07:53:35.000Z,6.090029325513216
2023-05-04T07:54:37.000Z,6.090029325513216
2023-05-04T07:55:39.000Z,6.109481915933548
2023-05-04T07:56:42.000Z,6.109481915933548
2023-05-04T07:57:44.000Z,6.109481915933548
2023-05-04T07:58:46.000Z,6.099755620723382
2023-05-04T07:59:49.000Z,6.08030303030305
2023-05-04T08:00:51.000Z,6.099755620723382
2023-05-04T08:01:53.000Z,6.148387096774213
2023-05-04T08:02:55.000Z,6.187292277614878
2023-05-04T08:03:58.000Z,6.158113391984379
2023-05-04T08:05:00.000Z,6.187292277614878
2023-05-04T08:06:02.000Z,6.20674486803521
2023-05-04T08:07:05.000Z,6.177565982404712
2023-05-04T08:08:07.000Z,6.148387096774213
2023-05-04T08:09:09.000Z,6.20674486803521
2023-05-04T08:10:12.000Z,6.235923753665709
2023-05-04T08:11:14.000Z,6.235923753665709
2023-05-04T08:12:16.000Z,6.235923753665709
2023-05-04T08:13:18.000Z,6.245650048875875
2023-05-04T08:14:21.000Z,6.20674486803521
2023-05-04T08:15:23.000Z,6.138660801564047
2023-05-04T08:16:25.000Z,6.177565982404712
2023-05-04T08:17:28.000Z,6.148387096774213
2023-05-04T08:18:30.000Z,6.138660801564047
2023-05-04T08:19:32.000Z,6.138660801564047
2023-05-04T08:20:34.000Z,6.148387096774213
2023-05-04T08:21:37.000Z,6.128934506353881
2023-05-04T08:22:39.000Z,6.109481915933548
2023-05-04T08:23:41.000Z,6.070576735092883
2023-05-04T08:24:44.000Z,6.128934506353881
2023-05-04T08:25:46.000Z,6.128934506353881
2023-05-04T08:26:48.000Z,6.158113391984379
2023-05-04T08:27:50.000Z,6.128934506353881
2023-05-04T08:28:53.000Z,6.187292277614878
2023-05-04T08:29:55.000Z,6.158113391984379
2023-05-04T08:30:57.000Z,6.226197458455543
2023-05-04T08:32:00.000Z,6.28455522971654
2023-05-04T08:33:02.000Z,6.323460410557205
2023-05-04T08:34:04.000Z,6.28455522971654
2023-05-04T08:35:07.000Z,6.294281524926706
2023-05-04T08:36:09.000Z,6.265102639296208
2023-05-04T08:37:11.000Z,6.294281524926706
2023-05-04T08:38:13.000Z,6.226197458455543
2023-05-04T08:39:16.000Z,6.274828934506374
2023-05-04T08:40:18.000Z,6.265102639296208
2023-05-04T08:41:20.000Z,6.274828934506374
2023-05-04T08:42:23.000Z,6.20674486803521
2023-05-04T08:43:25.000Z,6.197018572825044
2023-05-04T08:44:27.000Z,6.187292277614878
2023-05-04T08:45:29.000Z,6.158113391984379
2023-05-04T08:46:32.000Z,6.1192082111437145
2023-05-04T08:47:34.000Z,6.148387096774213
2023-05-04T08:48:36.000Z,6.109481915933548
2023-05-04T08:49:39.000Z,6.109481915933548
2023-05-04T08:50:41.000Z,6.128934506353881
2023-05-04T08:51:43.000Z,6.167839687194546
2023-05-04T08:52:45.000Z,6.158113391984379
2023-05-04T08:53:48.000Z,6.148387096774213
2023-05-04T08:54:50.000Z,6.070576735092883
2023-05-04T08:55:52.000Z,6.128934506353881
2023-05-04T08:56:55.000Z,6.148387096774213
2023-05-04T08:57:57.000Z,6.197018572825044
2023-05-04T08:58:59.000Z,6.226197458455543
2023-05-04T09:00:02.000Z,6.197018572825044
2023-05-04T09:01:04.000Z,6.197018572825044
2023-05-04T09:02:06.000Z,6.216471163245377
2023-05-04T09:03:08.000Z,6.2553763440860415
2023-05-04T09:04:11.000Z,6.177565982404712
2023-05-04T09:05:13.000Z,6.197018572825044
2023-05-04T09:06:15.000Z,6.216471163245377
2023-05-04T09:07:18.000Z,6.265102639296208
2023-05-04T09:08:20.000Z,6.294281524926706
2023-05-04T09:09:22.000Z,6.3040078201368726
2023-05-04T09:10:24.000Z,6.2553763440860415
2023-05-04T09:11:27.000Z,6.294281524926706
2023-05-04T09:12:29.000Z,6.197018572825044
2023-05-04T09:13:31.000Z,6.226197458455543
2023-05-04T09:14:34.000Z,6.20674486803521
2023-05-04T09:15:36.000Z,6.216471163245377
2023-05-04T09:16:38.000Z,6.197018572825044
2023-05-04T09:17:41.000Z,6.187292277614878
2023-05-04T09:18:43.000Z,6.177565982404712
2023-05-04T09:19:45.000Z,6.167839687194546
2023-05-04T09:20:47.000Z,6.138660801564047
2023-05-04T09:21:50.000Z,6.128934506353881
2023-05-04T09:22:52.000Z,6.197018572825044
2023-05-04T09:23:54.000Z,6.2553763440860415
2023-05-04T09:24:57.000Z,6.216471163245377
2023-05-04T09:25:59.000Z,6.20674486803521
2023-05-04T09:27:01.000Z,6.245650048875875
2023-05-04T09:28:04.000Z,6.265102639296208
2023-05-04T09:29:06.000Z,6.294281524926706
2023-05-04T09:30:08.000Z,6.2553763440860415
2023-05-04T09:31:11.000Z,6.245650048875875
2023-05-04T09:32:13.000Z,6.274828934506374
2023-05-04T09:33:15.000Z,6.323460410557205
2023-05-04T09:34:17.000Z,6.36236559139787
2023-05-04T09:35:20.000Z,6.323460410557205
2023-05-04T09:36:22.000Z,6.342913000977537
2023-05-04T09:37:24.000Z,6.36236559139787